sensor_id;sensor_type;location;lat;lon;timestamp;pressure;altitude;pressure_sealevel;temperature;humidity
11878;BME280;5998;42.676;23.268;2023-03-01T00:00:42;95314.75;;;5.72;100.00
11878;BME280;5998;42.676;23.268;2023-03-01T00:03:12;95310.41;;;5.76;100.00
11878;BME280;5998;42.676;23.268;2023-03-01T00:05:45;95311.88;;;5.82;100.00
11878;BME280;5998;42.676;23.268;2023-03-01T00:08:12;95304.66;;;5.69;100.00
11878;BME280;5998;42.676;23.268;2023-03-01T00:10:39;95310.69;;;5.75;100.00
11878;BME280;5998;42.676;23.268;2023-03-01T00:13:05;95301.72;;;5.71;100.00
11878;BME280;5998;42.676;23.268;2023-03-01T00:15:32;95291.13;;;5.79;100.00
11878;BME280;5998;42.676;23.268;2023-03-01T00:18:00;95297.22;;;5.80;100.00
11878;BME280;5998;42.676;23.268;2023-03-01T00:20:26;95295.81;;;5.87;100.00
11878;BME280;5998;42.676;23.268;2023-03-01T00:22:54;95274.78;;;5.81;100.00
11878;BME280;5998;42.676;23.268;2023-03-01T00:25:21;95284.31;;;5.87;100.00
11878;BME280;5998;42.676;23.268;2023-03-01T00:27:48;95266.88;;;5.89;100.00
11878;BME280;5998;42.676;23.268;2023-03-01T00:30:15;95266.97;;;5.84;100.00
11878;BME280;5998;42.676;23.268;2023-03-01T00:32:42;95264.88;;;5.81;100.00
11878;BME280;5998;42.676;23.268;2023-03-01T00:35:08;95240.25;;;5.71;100.00
11878;BME280;5998;42.676;23.268;2023-03-01T00:37:35;95258.38;;;5.87;100.00
11878;BME280;5998;42.676;23.268;2023-03-01T00:40:04;95262.13;;;6.00;100.00
11878;BME280;5998;42.676;23.268;2023-03-01T00:42:31;95260.63;;;5.94;100.00
11878;BME280;5998;42.676;23.268;2023-03-01T00:44:58;95263.00;;;6.09;100.00
11878;BME280;5998;42.676;23.268;2023-03-01T00:47:24;95262.78;;;6.19;100.00
11878;BME280;5998;42.676;23.268;2023-03-01T00:49:51;95253.19;;;6.05;100.00
11878;BME280;5998;42.676;23.268;2023-03-01T00:52:18;95251.03;;;6.07;100.00
11878;BME280;5998;42.676;23.268;2023-03-01T00:54:44;95251.88;;;6.16;100.00
11878;BME280;5998;42.676;23.268;2023-03-01T00:57:12;95256.38;;;6.07;100.00
11878;BME280;5998;42.676;23.268;2023-03-01T00:59:39;95252.03;;;5.97;100.00
11878;BME280;5998;42.676;23.268;2023-03-01T01:02:06;95246.66;;;5.83;100.00
11878;BME280;5998;42.676;23.268;2023-03-01T01:04:32;95255.28;;;5.80;100.00
11878;BME280;5998;42.676;23.268;2023-03-01T01:06:59;95265.28;;;5.88;100.00
11878;BME280;5998;42.676;23.268;2023-03-01T01:09:26;95263.31;;;5.94;100.00
11878;BME280;5998;42.676;23.268;2023-03-01T01:11:52;95259.84;;;5.93;100.00
11878;BME280;5998;42.676;23.268;2023-03-01T01:14:20;95253.03;;;5.87;100.00
11878;BME280;5998;42.676;23.268;2023-03-01T01:16:47;95253.31;;;5.86;100.00
11878;BME280;5998;42.676;23.268;2023-03-01T01:19:16;95255.13;;;5.90;100.00
11878;BME280;5998;42.676;23.268;2023-03-01T01:21:43;95248.06;;;5.94;100.00
11878;BME280;5998;42.676;23.268;2023-03-01T01:24:10;95257.34;;;6.11;100.00
11878;BME280;5998;42.676;23.268;2023-03-01T01:26:37;95250.44;;;5.96;100.00
11878;BME280;5998;42.676;23.268;2023-03-01T01:29:05;95258.97;;;5.98;100.00
11878;BME280;5998;42.676;23.268;2023-03-01T01:31:34;95246.88;;;6.01;100.00
11878;BME280;5998;42.676;23.268;2023-03-01T01:34:03;95252.63;;;5.94;100.00
11878;BME280;5998;42.676;23.268;2023-03-01T01:36:31;95256.78;;;6.00;100.00
11878;BME280;5998;42.676;23.268;2023-03-01T01:38:58;95262.22;;;5.95;100.00
11878;BME280;5998;42.676;23.268;2023-03-01T01:41:26;95272.69;;;6.05;100.00
11878;BME280;5998;42.676;23.268;2023-03-01T01:44:12;95269.44;;;5.94;100.00
11878;BME280;5998;42.676;23.268;2023-03-01T01:46:43;95269.75;;;5.93;100.00
11878;BME280;5998;42.676;23.268;2023-03-01T01:49:18;95273.19;;;5.93;100.00
11878;BME280;5998;42.676;23.268;2023-03-01T01:51:48;95270.84;;;5.92;100.00
11878;BME280;5998;42.676;23.268;2023-03-01T01:54:19;95262.91;;;6.01;100.00
11878;BME280;5998;42.676;23.268;2023-03-01T01:56:51;95259.84;;;5.93;100.00
11878;BME280;5998;42.676;23.268;2023-03-01T01:59:19;95261.09;;;5.82;100.00
11878;BME280;5998;42.676;23.268;2023-03-01T02:01:51;95250.41;;;5.82;100.00
11878;BME280;5998;42.676;23.268;2023-03-01T02:04:18;95246.41;;;5.85;100.00
11878;BME280;5998;42.676;23.268;2023-03-01T02:06:48;95246.31;;;5.90;100.00
11878;BME280;5998;42.676;23.268;2023-03-01T02:09:19;95234.47;;;6.05;100.00
11878;BME280;5998;42.676;23.268;2023-03-01T02:11:47;95229.38;;;5.94;100.00
11878;BME280;5998;42.676;23.268;2023-03-01T02:14:16;95224.59;;;6.05;100.00
11878;BME280;5998;42.676;23.268;2023-03-01T02:16:42;95212.81;;;6.06;100.00
11878;BME280;5998;42.676;23.268;2023-03-01T02:19:15;95228.97;;;6.01;100.00
11878;BME280;5998;42.676;23.268;2023-03-01T02:21:51;95224.09;;;6.03;100.00
11878;BME280;5998;42.676;23.268;2023-03-01T02:24:32;95225.56;;;6.09;100.00
11878;BME280;5998;42.676;23.268;2023-03-01T02:27:04;95216.16;;;6.12;100.00
11878;BME280;5998;42.676;23.268;2023-03-01T02:29:32;95216.34;;;6.15;100.00
11878;BME280;5998;42.676;23.268;2023-03-01T02:32:01;95229.53;;;6.12;100.00
11878;BME280;5998;42.676;23.268;2023-03-01T02:34:30;95236.53;;;6.21;100.00
11878;BME280;5998;42.676;23.268;2023-03-01T02:37:01;95236.91;;;6.28;100.00
11878;BME280;5998;42.676;23.268;2023-03-01T02:39:33;95236.91;;;6.28;100.00
11878;BME280;5998;42.676;23.268;2023-03-01T02:42:01;95231.13;;;6.35;100.00
11878;BME280;5998;42.676;23.268;2023-03-01T02:44:29;95236.47;;;6.35;100.00
11878;BME280;5998;42.676;23.268;2023-03-01T02:47:01;95229.13;;;6.40;100.00
11878;BME280;5998;42.676;23.268;2023-03-01T02:49:31;95224.34;;;6.29;100.00
11878;BME280;5998;42.676;23.268;2023-03-01T02:52:32;95229.28;;;6.22;100.00
11878;BME280;5998;42.676;23.268;2023-03-01T02:55:03;95222.66;;;6.19;100.00
11878;BME280;5998;42.676;23.268;2023-03-01T02:57:34;95226.63;;;6.22;100.00
11878;BME280;5998;42.676;23.268;2023-03-01T03:00:06;95225.75;;;6.13;100.00
11878;BME280;5998;42.676;23.268;2023-03-01T03:02:35;95224.66;;;6.14;100.00
11878;BME280;5998;42.676;23.268;2023-03-01T03:05:04;95228.25;;;6.09;100.00
11878;BME280;5998;42.676;23.268;2023-03-01T03:07:33;95225.50;;;6.01;100.00
11878;BME280;5998;42.676;23.268;2023-03-01T03:10:01;95224.78;;;6.09;100.00
11878;BME280;5998;42.676;23.268;2023-03-01T03:12:27;95232.34;;;5.93;100.00
11878;BME280;5998;42.676;23.268;2023-03-01T03:14:54;95236.47;;;5.99;100.00
11878;BME280;5998;42.676;23.268;2023-03-01T03:17:21;95241.31;;;5.83;100.00
11878;BME280;5998;42.676;23.268;2023-03-01T03:19:49;95241.06;;;5.99;100.00
11878;BME280;5998;42.676;23.268;2023-03-01T03:22:16;95244.00;;;5.83;100.00
11878;BME280;5998;42.676;23.268;2023-03-01T03:24:42;95236.88;;;5.79;100.00
11878;BME280;5998;42.676;23.268;2023-03-01T03:27:09;95240.53;;;5.69;100.00
11878;BME280;5998;42.676;23.268;2023-03-01T03:29:36;95238.06;;;5.73;100.00
11878;BME280;5998;42.676;23.268;2023-03-01T03:32:03;95234.00;;;5.75;100.00
11878;BME280;5998;42.676;23.268;2023-03-01T03:34:30;95240.66;;;5.64;100.00
11878;BME280;5998;42.676;23.268;2023-03-01T03:36:58;95247.19;;;5.58;100.00
11878;BME280;5998;42.676;23.268;2023-03-01T03:39:25;95238.09;;;5.46;100.00
11878;BME280;5998;42.676;23.268;2023-03-01T03:41:52;95250.84;;;5.49;100.00
11878;BME280;5998;42.676;23.268;2023-03-01T03:47:04;95259.56;;;5.54;100.00
11878;BME280;5998;42.676;23.268;2023-03-01T03:49:30;95258.88;;;5.49;100.00
11878;BME280;5998;42.676;23.268;2023-03-01T03:51:58;95254.38;;;5.44;100.00
11878;BME280;5998;42.676;23.268;2023-03-01T03:54:25;95252.34;;;5.41;100.00
11878;BME280;5998;42.676;23.268;2023-03-01T03:57:10;95249.47;;;5.38;100.00
11878;BME280;5998;42.676;23.268;2023-03-01T03:59:37;95249.44;;;5.24;100.00
11878;BME280;5998;42.676;23.268;2023-03-01T04:02:04;95237.97;;;5.23;100.00
11878;BME280;5998;42.676;23.268;2023-03-01T04:04:31;95250.53;;;5.23;100.00
11878;BME280;5998;42.676;23.268;2023-03-01T04:06:59;95258.16;;;5.29;100.00
11878;BME280;5998;42.676;23.268;2023-03-01T04:09:25;95262.00;;;5.23;100.00
11878;BME280;5998;42.676;23.268;2023-03-01T04:11:52;95256.75;;;5.18;100.00
11878;BME280;5998;42.676;23.268;2023-03-01T04:14:19;95257.56;;;5.19;100.00
11878;BME280;5998;42.676;23.268;2023-03-01T04:16:45;95259.69;;;5.17;100.00
11878;BME280;5998;42.676;23.268;2023-03-01T04:19:12;95258.22;;;5.11;100.00
11878;BME280;5998;42.676;23.268;2023-03-01T04:21:40;95257.31;;;5.02;100.00
11878;BME280;5998;42.676;23.268;2023-03-01T04:24:08;95255.63;;;5.06;100.00
11878;BME280;5998;42.676;23.268;2023-03-01T04:26:35;95260.06;;;4.97;100.00
11878;BME280;5998;42.676;23.268;2023-03-01T04:29:01;95256.50;;;5.01;100.00
11878;BME280;5998;42.676;23.268;2023-03-01T04:31:28;95263.63;;;5.06;100.00
11878;BME280;5998;42.676;23.268;2023-03-01T04:33:55;95260.09;;;5.10;100.00
11878;BME280;5998;42.676;23.268;2023-03-01T04:36:24;95261.66;;;5.11;100.00
11878;BME280;5998;42.676;23.268;2023-03-01T04:38:51;95251.66;;;5.03;100.00
11878;BME280;5998;42.676;23.268;2023-03-01T04:41:21;95257.00;;;5.03;100.00
11878;BME280;5998;42.676;23.268;2023-03-01T04:43:48;95250.59;;;5.04;100.00
11878;BME280;5998;42.676;23.268;2023-03-01T04:46:17;95257.19;;;4.93;100.00
11878;BME280;5998;42.676;23.268;2023-03-01T04:48:44;95255.94;;;5.04;100.00
11878;BME280;5998;42.676;23.268;2023-03-01T04:51:12;95255.44;;;5.02;100.00
11878;BME280;5998;42.676;23.268;2023-03-01T04:53:39;95241.41;;;4.97;100.00
11878;BME280;5998;42.676;23.268;2023-03-01T04:56:06;95246.84;;;5.05;100.00
11878;BME280;5998;42.676;23.268;2023-03-01T04:58:34;95252.25;;;5.00;100.00
11878;BME280;5998;42.676;23.268;2023-03-01T05:01:01;95252.34;;;4.95;100.00
11878;BME280;5998;42.676;23.268;2023-03-01T05:03:28;95247.59;;;4.92;100.00
11878;BME280;5998;42.676;23.268;2023-03-01T05:05:58;95250.16;;;4.97;100.00
11878;BME280;5998;42.676;23.268;2023-03-01T05:08:25;95248.13;;;4.94;100.00
11878;BME280;5998;42.676;23.268;2023-03-01T05:10:53;95244.13;;;4.92;100.00
11878;BME280;5998;42.676;23.268;2023-03-01T05:13:20;95259.06;;;4.93;100.00
11878;BME280;5998;42.676;23.268;2023-03-01T05:15:53;95252.78;;;5.02;100.00
11878;BME280;5998;42.676;23.268;2023-03-01T05:18:20;95252.44;;;4.90;100.00
11878;BME280;5998;42.676;23.268;2023-03-01T05:20:51;95245.44;;;4.94;100.00
11878;BME280;5998;42.676;23.268;2023-03-01T05:23:18;95258.69;;;4.99;100.00
11878;BME280;5998;42.676;23.268;2023-03-01T05:25:45;95258.50;;;5.09;100.00
11878;BME280;5998;42.676;23.268;2023-03-01T05:28:12;95262.06;;;5.05;100.00
11878;BME280;5998;42.676;23.268;2023-03-01T05:30:38;95248.03;;;4.99;100.00
11878;BME280;5998;42.676;23.268;2023-03-01T05:33:07;95252.28;;;5.14;100.00
11878;BME280;5998;42.676;23.268;2023-03-01T05:35:39;95249.91;;;5.12;100.00
11878;BME280;5998;42.676;23.268;2023-03-01T05:38:06;95251.41;;;5.05;100.00
11878;BME280;5998;42.676;23.268;2023-03-01T05:40:34;95254.19;;;5.13;100.00
11878;BME280;5998;42.676;23.268;2023-03-01T05:43:01;95263.28;;;5.26;100.00
11878;BME280;5998;42.676;23.268;2023-03-01T05:45:30;95260.50;;;5.17;100.00
11878;BME280;5998;42.676;23.268;2023-03-01T05:47:58;95246.34;;;5.17;100.00
11878;BME280;5998;42.676;23.268;2023-03-01T05:50:28;95249.34;;;5.15;100.00
11878;BME280;5998;42.676;23.268;2023-03-01T05:52:58;95264.44;;;5.20;100.00
11878;BME280;5998;42.676;23.268;2023-03-01T05:55:26;95214.00;;;4.91;100.00
11878;BME280;5998;42.676;23.268;2023-03-01T05:57:53;95266.66;;;5.31;100.00
11878;BME280;5998;42.676;23.268;2023-03-01T06:00:21;95270.72;;;5.29;100.00
11878;BME280;5998;42.676;23.268;2023-03-01T06:02:48;95275.25;;;5.42;100.00
11878;BME280;5998;42.676;23.268;2023-03-01T06:05:15;95264.78;;;5.32;100.00
11878;BME280;5998;42.676;23.268;2023-03-01T06:07:43;95287.06;;;5.55;100.00
11878;BME280;5998;42.676;23.268;2023-03-01T06:10:11;95276.97;;;5.38;100.00
11878;BME280;5998;42.676;23.268;2023-03-01T06:12:39;95290.22;;;5.43;100.00
11878;BME280;5998;42.676;23.268;2023-03-01T06:15:08;95285.84;;;5.47;100.00
11878;BME280;5998;42.676;23.268;2023-03-01T06:17:36;95292.88;;;5.43;100.00
11878;BME280;5998;42.676;23.268;2023-03-01T06:20:05;95295.44;;;5.48;100.00
11878;BME280;5998;42.676;23.268;2023-03-01T06:22:32;95293.97;;;5.42;100.00
11878;BME280;5998;42.676;23.268;2023-03-01T06:25:00;95298.34;;;5.52;100.00
11878;BME280;5998;42.676;23.268;2023-03-01T06:27:27;95293.06;;;5.47;100.00
11878;BME280;5998;42.676;23.268;2023-03-01T06:29:54;95296.75;;;5.51;100.00
11878;BME280;5998;42.676;23.268;2023-03-01T06:32:21;95282.47;;;5.42;100.00
11878;BME280;5998;42.676;23.268;2023-03-01T06:34:47;95302.78;;;5.56;100.00
11878;BME280;5998;42.676;23.268;2023-03-01T06:37:14;95297.75;;;5.55;100.00
11878;BME280;5998;42.676;23.268;2023-03-01T06:39:41;95302.19;;;5.59;100.00
11878;BME280;5998;42.676;23.268;2023-03-01T06:42:09;95300.41;;;5.55;100.00
11878;BME280;5998;42.676;23.268;2023-03-01T06:44:36;95285.03;;;5.47;100.00
11878;BME280;5998;42.676;23.268;2023-03-01T06:47:03;95298.13;;;5.48;100.00
11878;BME280;5998;42.676;23.268;2023-03-01T06:49:29;95287.06;;;5.41;100.00
11878;BME280;5998;42.676;23.268;2023-03-01T06:51:56;95293.59;;;5.49;100.00
11878;BME280;5998;42.676;23.268;2023-03-01T06:54:23;95296.53;;;5.47;100.00
11878;BME280;5998;42.676;23.268;2023-03-01T06:56:50;95288.13;;;5.54;100.00
11878;BME280;5998;42.676;23.268;2023-03-01T06:59:18;95295.47;;;5.62;100.00
11878;BME280;5998;42.676;23.268;2023-03-01T07:01:45;95295.47;;;5.62;100.00
11878;BME280;5998;42.676;23.268;2023-03-01T07:04:12;95300.91;;;5.57;100.00
11878;BME280;5998;42.676;23.268;2023-03-01T07:06:40;95263.88;;;5.36;100.00
11878;BME280;5998;42.676;23.268;2023-03-01T07:09:06;95303.84;;;5.55;100.00
11878;BME280;5998;42.676;23.268;2023-03-01T07:11:33;95292.91;;;5.57;100.00
11878;BME280;5998;42.676;23.268;2023-03-01T07:14:00;95294.28;;;5.68;100.00
11878;BME280;5998;42.676;23.268;2023-03-01T07:16:28;95286.88;;;5.92;100.00
11878;BME280;5998;42.676;23.268;2023-03-01T07:18:55;95289.25;;;5.93;100.00
11878;BME280;5998;42.676;23.268;2023-03-01T07:21:21;95293.13;;;5.87;100.00
11878;BME280;5998;42.676;23.268;2023-03-01T07:23:48;95282.69;;;6.13;100.00
11878;BME280;5998;42.676;23.268;2023-03-01T07:26:15;95277.56;;;6.03;100.00
11878;BME280;5998;42.676;23.268;2023-03-01T07:28:42;95272.59;;;5.97;100.00
11878;BME280;5998;42.676;23.268;2023-03-01T07:31:08;95269.75;;;5.93;100.00
11878;BME280;5998;42.676;23.268;2023-03-01T07:33:36;95279.44;;;6.03;100.00
11878;BME280;5998;42.676;23.268;2023-03-01T07:36:04;95278.34;;;6.04;100.00
11878;BME280;5998;42.676;23.268;2023-03-01T07:38:31;95268.25;;;6.01;100.00
11878;BME280;5998;42.676;23.268;2023-03-01T07:40:59;95272.81;;;6.00;100.00
11878;BME280;5998;42.676;23.268;2023-03-01T07:43:27;95276.47;;;6.04;100.00
11878;BME280;5998;42.676;23.268;2023-03-01T07:45:54;95270.19;;;6.22;100.00
11878;BME280;5998;42.676;23.268;2023-03-01T07:48:21;95263.41;;;6.38;100.00
11878;BME280;5998;42.676;23.268;2023-03-01T07:50:49;95264.09;;;6.44;100.00
11878;BME280;5998;42.676;23.268;2023-03-01T07:53:15;95271.75;;;6.73;100.00
11878;BME280;5998;42.676;23.268;2023-03-01T07:55:42;95254.94;;;6.81;100.00
11878;BME280;5998;42.676;23.268;2023-03-01T07:58:09;95257.19;;;6.87;100.00
11878;BME280;5998;42.676;23.268;2023-03-01T08:00:35;95245.31;;;6.80;100.00
11878;BME280;5998;42.676;23.268;2023-03-01T08:03:02;95249.47;;;6.86;100.00
11878;BME280;5998;42.676;23.268;2023-03-01T08:05:29;95256.09;;;6.66;100.00
11878;BME280;5998;42.676;23.268;2023-03-01T08:07:57;95238.63;;;6.69;100.00
11878;BME280;5998;42.676;23.268;2023-03-01T08:10:24;95239.38;;;6.61;100.00
11878;BME280;5998;42.676;23.268;2023-03-01T08:12:51;95239.13;;;6.71;100.00
11878;BME280;5998;42.676;23.268;2023-03-01T08:15:18;95247.53;;;6.78;100.00
11878;BME280;5998;42.676;23.268;2023-03-01T08:17:45;95245.81;;;6.82;100.00
11878;BME280;5998;42.676;23.268;2023-03-01T08:20:12;95239.66;;;6.81;100.00
11878;BME280;5998;42.676;23.268;2023-03-01T08:22:38;95250.75;;;6.88;100.00
11878;BME280;5998;42.676;23.268;2023-03-01T08:25:07;95258.16;;;6.69;100.00
11878;BME280;5998;42.676;23.268;2023-03-01T08:27:34;95246.41;;;6.79;100.00
11878;BME280;5998;42.676;23.268;2023-03-01T08:30:01;95246.19;;;6.89;100.00
11878;BME280;5998;42.676;23.268;2023-03-01T08:32:28;95239.47;;;7.00;100.00
11878;BME280;5998;42.676;23.268;2023-03-01T08:34:54;95229.94;;;6.85;100.00
11878;BME280;5998;42.676;23.268;2023-03-01T08:37:21;95239.81;;;7.07;100.00
11878;BME280;5998;42.676;23.268;2023-03-01T08:39:48;95240.88;;;7.28;100.00
11878;BME280;5998;42.676;23.268;2023-03-01T08:42:16;95237.81;;;7.43;100.00
11878;BME280;5998;42.676;23.268;2023-03-01T08:44:43;95237.53;;;7.53;100.00
11878;BME280;5998;42.676;23.268;2023-03-01T08:47:10;95244.66;;;7.58;100.00
11878;BME280;5998;42.676;23.268;2023-03-01T08:49:36;95237.16;;;7.77;100.00
11878;BME280;5998;42.676;23.268;2023-03-01T08:52:03;95229.25;;;7.81;100.00
11878;BME280;5998;42.676;23.268;2023-03-01T08:54:30;95237.28;;;7.81;100.00
11878;BME280;5998;42.676;23.268;2023-03-01T08:56:56;95232.31;;;7.96;100.00
11878;BME280;5998;42.676;23.268;2023-03-01T08:59:26;95241.44;;;7.95;100.00
11878;BME280;5998;42.676;23.268;2023-03-01T09:01:54;95227.25;;;7.95;100.00
11878;BME280;5998;42.676;23.268;2023-03-01T09:04:21;95229.81;;;8.17;100.00
11878;BME280;5998;42.676;23.268;2023-03-01T09:06:48;95204.44;;;8.32;100.00
11878;BME280;5998;42.676;23.268;2023-03-01T09:09:16;95220.06;;;8.47;100.00
11878;BME280;5998;42.676;23.268;2023-03-01T09:11:43;95229.53;;;8.44;100.00
11878;BME280;5998;42.676;23.268;2023-03-01T09:14:12;95233.16;;;8.31;100.00
11878;BME280;5998;42.676;23.268;2023-03-01T09:16:40;95231.41;;;8.44;100.00
11878;BME280;5998;42.676;23.268;2023-03-01T09:19:07;95235.63;;;8.19;100.00
11878;BME280;5998;42.676;23.268;2023-03-01T09:21:33;95226.97;;;8.22;100.00
11878;BME280;5998;42.676;23.268;2023-03-01T09:24:00;95227.47;;;8.24;100.00
11878;BME280;5998;42.676;23.268;2023-03-01T09:26:27;95228.22;;;8.16;100.00
11878;BME280;5998;42.676;23.268;2023-03-01T09:28:55;95227.78;;;8.31;100.00
11878;BME280;5998;42.676;23.268;2023-03-01T09:31:23;95200.25;;;7.91;100.00
11878;BME280;5998;42.676;23.268;2023-03-01T09:33:53;95228.53;;;8.06;100.00
11878;BME280;5998;42.676;23.268;2023-03-01T09:36:21;95211.47;;;8.10;100.00
11878;BME280;5998;42.676;23.268;2023-03-01T09:38:49;95211.03;;;8.17;100.00
11878;BME280;5998;42.676;23.268;2023-03-01T09:41:36;95225.03;;;7.97;100.00
11878;BME280;5998;42.676;23.268;2023-03-01T09:44:10;95221.44;;;8.01;100.00
11878;BME280;5998;42.676;23.268;2023-03-01T09:46:43;95226.31;;;7.99;100.00
11878;BME280;5998;42.676;23.268;2023-03-01T09:49:15;95216.69;;;7.98;100.00
11878;BME280;5998;42.676;23.268;2023-03-01T09:51:51;95211.63;;;8.05;100.00
11878;BME280;5998;42.676;23.268;2023-03-01T09:54:20;95213.53;;;8.05;100.00
11878;BME280;5998;42.676;23.268;2023-03-01T09:56:56;95204.13;;;8.33;100.00
11878;BME280;5998;42.676;23.268;2023-03-01T09:59:27;95201.13;;;8.43;100.00
11878;BME280;5998;42.676;23.268;2023-03-01T10:02:00;95193.38;;;8.50;100.00
11878;BME280;5998;42.676;23.268;2023-03-01T10:04:41;95193.06;;;8.69;100.00
11878;BME280;5998;42.676;23.268;2023-03-01T10:07:25;95191.00;;;8.66;100.00
11878;BME280;5998;42.676;23.268;2023-03-01T10:09:54;95149.19;;;8.39;100.00
11878;BME280;5998;42.676;23.268;2023-03-01T10:12:24;95185.16;;;8.55;100.00
11878;BME280;5998;42.676;23.268;2023-03-01T10:14:57;95185.00;;;8.69;100.00
11878;BME280;5998;42.676;23.268;2023-03-01T10:17:30;95152.00;;;8.08;100.00
11878;BME280;5998;42.676;23.268;2023-03-01T10:20:15;95186.75;;;8.48;100.00
11878;BME280;5998;42.676;23.268;2023-03-01T10:22:43;95175.53;;;8.63;100.00
11878;BME280;5998;42.676;23.268;2023-03-01T10:25:15;95179.34;;;8.27;100.00
11878;BME280;5998;42.676;23.268;2023-03-01T10:27:47;95175.41;;;8.34;100.00
11878;BME280;5998;42.676;23.268;2023-03-01T10:30:19;95173.63;;;8.55;100.00
11878;BME280;5998;42.676;23.268;2023-03-01T10:32:48;95179.00;;;8.63;100.00
11878;BME280;5998;42.676;23.268;2023-03-01T10:35:20;95180.25;;;8.83;100.00
11878;BME280;5998;42.676;23.268;2023-03-01T10:37:57;95171.19;;;8.96;100.00
11878;BME280;5998;42.676;23.268;2023-03-01T10:40:24;95173.59;;;8.89;100.00
11878;BME280;5998;42.676;23.268;2023-03-01T10:42:51;95182.31;;;8.60;100.00
11878;BME280;5998;42.676;23.268;2023-03-01T10:45:31;95161.97;;;8.51;100.00
11878;BME280;5998;42.676;23.268;2023-03-01T10:48:04;95171.75;;;8.29;100.00
11878;BME280;5998;42.676;23.268;2023-03-01T10:50:32;95167.19;;;8.47;100.00
11878;BME280;5998;42.676;23.268;2023-03-01T10:53:01;95172.53;;;8.47;100.00
11878;BME280;5998;42.676;23.268;2023-03-01T10:55:33;95167.97;;;8.48;100.00
11878;BME280;5998;42.676;23.268;2023-03-01T10:58:16;95165.91;;;8.53;100.00
11878;BME280;5998;42.676;23.268;2023-03-01T11:00:50;95168.09;;;8.60;100.00
11878;BME280;5998;42.676;23.268;2023-03-01T11:03:20;95171.28;;;8.36;100.00
11878;BME280;5998;42.676;23.268;2023-03-01T11:05:58;95175.56;;;8.37;100.00
11878;BME280;5998;42.676;23.268;2023-03-01T11:08:30;95167.34;;;8.68;100.00
11878;BME280;5998;42.676;23.268;2023-03-01T11:11:05;95173.78;;;8.84;100.00
11878;BME280;5998;42.676;23.268;2023-03-01T11:13:33;95167.81;;;8.61;100.00
11878;BME280;5998;42.676;23.268;2023-03-01T11:16:03;95163.78;;;8.93;100.00
11878;BME280;5998;42.676;23.268;2023-03-01T11:18:31;95159.38;;;8.88;100.00
11878;BME280;5998;42.676;23.268;2023-03-01T11:21:01;95158.06;;;9.03;100.00
11878;BME280;5998;42.676;23.268;2023-03-01T11:23:30;95151.09;;;9.11;100.00
11878;BME280;5998;42.676;23.268;2023-03-01T11:26:00;95155.66;;;9.19;100.00
11878;BME280;5998;42.676;23.268;2023-03-01T11:28:29;95153.72;;;9.28;100.00
11878;BME280;5998;42.676;23.268;2023-03-01T11:31:00;95152.53;;;9.08;100.00
11878;BME280;5998;42.676;23.268;2023-03-01T11:33:36;95163.38;;;9.20;100.00
11878;BME280;5998;42.676;23.268;2023-03-01T11:36:10;95154.88;;;9.10;100.00
11878;BME280;5998;42.676;23.268;2023-03-01T11:38:41;95147.06;;;8.79;100.00
11878;BME280;5998;42.676;23.268;2023-03-01T11:41:14;95147.22;;;8.82;100.00
11878;BME280;5998;42.676;23.268;2023-03-01T11:43:49;95136.78;;;8.89;100.00
11878;BME280;5998;42.676;23.268;2023-03-01T11:46:44;95136.47;;;8.82;100.00
11878;BME280;5998;42.676;23.268;2023-03-01T11:49:37;95134.16;;;8.64;100.00
11878;BME280;5998;42.676;23.268;2023-03-01T11:52:17;95126.41;;;8.71;100.00
11878;BME280;5998;42.676;23.268;2023-03-01T11:54:57;95119.28;;;8.75;100.00
11878;BME280;5998;42.676;23.268;2023-03-01T11:57:42;95130.00;;;8.83;100.00
11878;BME280;5998;42.676;23.268;2023-03-01T12:00:23;95126.28;;;8.67;100.00
11878;BME280;5998;42.676;23.268;2023-03-01T12:03:15;95118.06;;;8.55;100.00
11878;BME280;5998;42.676;23.268;2023-03-01T12:08:51;95116.47;;;8.54;100.00
11878;BME280;5998;42.676;23.268;2023-03-01T12:11:33;95114.16;;;8.36;100.00
11878;BME280;5998;42.676;23.268;2023-03-01T12:14:44;95113.03;;;8.62;100.00
11878;BME280;5998;42.676;23.268;2023-03-01T12:17:35;95112.22;;;8.62;100.00
11878;BME280;5998;42.676;23.268;2023-03-01T12:20:25;95110.44;;;8.74;100.00
11878;BME280;5998;42.676;23.268;2023-03-01T12:23:07;95106.09;;;8.53;100.00
11878;BME280;5998;42.676;23.268;2023-03-01T12:25:47;95099.72;;;8.66;100.00
11878;BME280;5998;42.676;23.268;2023-03-01T12:28:38;95103.81;;;8.72;100.00
11878;BME280;5998;42.676;23.268;2023-03-01T12:31:36;95097.84;;;8.66;100.00
11878;BME280;5998;42.676;23.268;2023-03-01T12:34:19;95098.41;;;8.89;100.00
11878;BME280;5998;42.676;23.268;2023-03-01T12:37:04;95086.88;;;8.88;100.00
11878;BME280;5998;42.676;23.268;2023-03-01T12:39:42;95086.16;;;9.09;100.00
11878;BME280;5998;42.676;23.268;2023-03-01T12:42:22;95051.69;;;9.11;100.00
11878;BME280;5998;42.676;23.268;2023-03-01T12:45:05;95082.59;;;9.55;100.00
11878;BME280;5998;42.676;23.268;2023-03-01T12:47:55;95085.47;;;9.70;100.00
11878;BME280;5998;42.676;23.268;2023-03-01T12:50:34;95086.03;;;9.64;100.00
11878;BME280;5998;42.676;23.268;2023-03-01T12:53:04;95086.91;;;9.47;100.00
11878;BME280;5998;42.676;23.268;2023-03-01T12:55:33;95092.00;;;9.69;100.00
11878;BME280;5998;42.676;23.268;2023-03-01T12:58:07;95089.84;;;9.54;100.00
11878;BME280;5998;42.676;23.268;2023-03-01T13:00:59;95090.22;;;9.73;100.00
11878;BME280;5998;42.676;23.268;2023-03-01T13:03:32;95086.47;;;9.86;100.00
11878;BME280;5998;42.676;23.268;2023-03-01T13:06:09;95064.97;;;9.66;100.00
11878;BME280;5998;42.676;23.268;2023-03-01T13:08:42;95084.97;;;9.77;100.00
11878;BME280;5998;42.676;23.268;2023-03-01T13:11:15;95080.00;;;9.37;100.00
11878;BME280;5998;42.676;23.268;2023-03-01T13:13:45;95063.25;;;9.11;100.00
11878;BME280;5998;42.676;23.268;2023-03-01T13:16:39;95089.16;;;9.07;100.00
11878;BME280;5998;42.676;23.268;2023-03-01T13:19:11;95089.88;;;8.87;100.00
11878;BME280;5998;42.676;23.268;2023-03-01T13:21:39;95094.19;;;9.17;100.00